createdAt,value
2022-09-27T00:01:33.242Z,11.96000004
2022-09-27T00:02:28.070Z,11.94999981
2022-09-27T00:03:26.935Z,11.96000004
2022-09-27T00:04:35.034Z,11.94999981
2022-09-27T00:05:31.536Z,11.94999981
2022-09-27T00:06:39.956Z,11.92000008
2022-09-27T00:06:41.033Z,11.92000008
2022-09-27T00:07:32.722Z,11.93000031
2022-09-27T00:08:27.405Z,11.93999958
2022-09-27T00:09:33.069Z,11.94999981
2022-09-27T00:10:27.314Z,11.97000027
2022-09-27T00:11:34.020Z,11.96000004
2022-09-27T00:12:27.334Z,11.94999981
2022-09-27T00:13:27.495Z,11.90999985
2022-09-27T00:14:26.906Z,11.90999985
2022-09-27T00:15:20.256Z,11.90999985
2022-09-27T00:16:19.898Z,11.89999962
2022-09-27T00:17:16.208Z,11.89000034
2022-09-27T00:18:16.834Z,11.86999989
2022-09-27T00:19:11.531Z,11.86999989
2022-09-27T00:21:06.341Z,11.85000038
2022-09-27T00:22:05.370Z,11.85000038
2022-09-27T00:23:02.578Z,11.84000015
2022-09-27T00:24:01.166Z,11.84000015
2022-09-27T00:26:41.056Z,11.89000034
2022-09-27T00:27:20.748Z,11.96000004
2022-09-27T00:28:17.970Z,11.97000027
2022-09-27T00:29:14.960Z,11.97999954
2022-09-27T00:30:15.207Z,11.96000004
2022-09-27T00:31:09.956Z,11.93000031
2022-09-27T00:32:13.191Z,11.89999962
2022-09-27T00:33:13.731Z,11.86999989
2022-09-27T00:34:11.647Z,11.81000042
2022-09-27T00:36:12.520Z,11.80000019
2022-09-27T00:37:12.906Z,11.77999973
2022-09-27T00:38:08.024Z,11.77999973
2022-09-27T00:39:10.767Z,11.76000023
2022-09-27T00:41:04.200Z,11.76000023
2022-09-27T00:42:05.076Z,11.73999977
2022-09-27T00:43:00.973Z,11.72000027
2022-09-27T00:44:02.215Z,11.72000027
2022-09-27T00:46:00.858Z,11.75
2022-09-27T00:46:56.470Z,11.72999954
2022-09-27T00:47:59.089Z,11.72000027
2022-09-27T00:48:57.177Z,11.72000027
2022-09-27T00:50:53.357Z,11.76000023
2022-09-27T00:51:53.549Z,11.73999977
2022-09-27T00:52:48.249Z,11.73999977
2022-09-27T00:53:49.113Z,11.72000027
2022-09-27T00:54:47.792Z,11.72000027
2022-09-27T00:55:54.896Z,11.71000004
2022-09-27T00:56:52.312Z,11.69999981
2022-09-27T00:57:53.419Z,11.71000004
2022-09-27T00:58:54.832Z,11.68000031
2022-09-27T01:01:01.172Z,11.71000004
2022-09-27T01:02:06.079Z,11.65999985
2022-09-27T01:02:59.182Z,11.65999985
2022-09-27T01:04:01.289Z,11.67000008
2022-09-27T01:05:00.141Z,11.65999985
2022-09-27T01:06:41.146Z,11.72000027
2022-09-27T01:07:41.753Z,11.82999992
2022-09-27T01:08:39.860Z,11.85000038
2022-09-27T01:09:42.274Z,11.82999992
2022-09-27T01:11:35.661Z,11.80000019
2022-09-27T01:12:33.885Z,11.76000023
2022-09-27T01:13:38.961Z,11.75
2022-09-27T01:14:37.375Z,11.76000023
2022-09-27T01:16:30.196Z,11.85000038
2022-09-27T01:17:33.873Z,11.81000042
2022-09-27T01:18:28.583Z,11.77999973
2022-09-27T01:19:28.922Z,11.75
2022-09-27T01:21:15.503Z,11.81000042
2022-09-27T01:21:55.674Z,11.82999992
2022-09-27T01:23:00.031Z,11.82999992
2022-09-27T01:23:59.353Z,11.81999969
2022-09-27T01:25:55.143Z,11.75
2022-09-27T01:26:50.283Z,11.72000027
2022-09-27T01:27:48.893Z,11.69999981
2022-09-27T01:28:43.931Z,11.68000031
2022-09-27T01:29:43.908Z,11.68000031
2022-09-27T01:30:38.599Z,11.68000031
2022-09-27T01:31:39.285Z,11.64000034
2022-09-27T01:32:39.520Z,11.60999966
2022-09-27T01:33:38.836Z,11.57999992
2022-09-27T01:34:35.262Z,11.56999969
2022-09-27T01:36:29.352Z,11.59000015
2022-09-27T01:37:34.027Z,11.56999969
2022-09-27T01:38:29.449Z,11.56000042
2022-09-27T01:39:26.960Z,11.56999969
2022-09-27T01:41:24.936Z,11.56999969
2022-09-27T01:42:29.274Z,11.56000042
2022-09-27T01:43:21.318Z,11.52999973
2022-09-27T01:44:17.007Z,11.52999973
2022-09-27T01:45:22.494Z,11.55000019
2022-09-27T01:46:19.505Z,11.5
2022-09-27T01:47:14.141Z,11.5
2022-09-27T01:48:14.798Z,11.47000027
2022-09-27T01:49:09.961Z,11.46000004
2022-09-27T01:51:06.689Z,11.43000031
2022-09-27T01:52:12.193Z,11.39999962
2022-09-27T01:53:12.294Z,11.39000034
2022-09-27T01:54:06.192Z,11.39999962
2022-09-27T01:55:46.027Z,11.44999981
2022-09-27T01:56:23.984Z,11.47999954
2022-09-27T01:57:21.197Z,11.55000019
2022-09-27T01:58:23.445Z,11.55000019
2022-09-27T01:59:18.242Z,11.52000046
2022-09-27T02:00:19.353Z,11.5
2022-09-27T02:01:17.846Z,11.47000027
2022-09-27T02:02:18.079Z,11.43000031
2022-09-27T02:03:16.493Z,11.39999962
2022-09-27T02:04:23.166Z,11.36999989
2022-09-27T02:05:23.284Z,11.36999989
2022-09-27T02:06:23.582Z,11.36999989
2022-09-27T02:07:19.222Z,11.35000038
2022-09-27T02:08:21.933Z,11.32999992
2022-09-27T02:09:21.638Z,11.31000042
2022-09-27T02:10:21.039Z,11.34000015
2022-09-27T02:11:25.338Z,11.31999969
2022-09-27T02:12:18.737Z,11.31999969
2022-09-27T02:13:23.055Z,11.32999992
2022-09-27T02:14:21.729Z,11.28999996
2022-09-27T02:15:20.362Z,11.27000046
2022-09-27T02:16:17.601Z,11.27000046
2022-09-27T02:17:16.157Z,11.26000023
2022-09-27T02:18:12.244Z,11.25
2022-09-27T02:19:08.569Z,11.25
2022-09-27T02:20:09.724Z,11.27999973
2022-09-27T02:21:05.380Z,11.27000046
2022-09-27T02:22:08.711Z,11.27000046
2022-09-27T02:23:01.198Z,11.27000046
2022-09-27T02:24:08.406Z,11.28999996
2022-09-27T02:26:31.270Z,11.31999969
2022-09-27T02:27:10.091Z,11.35999966
2022-09-27T02:28:08.562Z,11.36999989
2022-09-27T02:29:10.902Z,11.39000034
2022-09-27T02:30:12.498Z,11.39999962
2022-09-27T02:31:16.331Z,11.39000034
2022-09-27T02:32:20.775Z,11.38000011
2022-09-27T02:33:15.676Z,11.38000011
2022-09-27T02:34:16.563Z,11.36999989
2022-09-27T02:36:23.052Z,11.39000034
2022-09-27T02:37:20.367Z,11.38000011
2022-09-27T02:38:20.243Z,11.38000011
2022-09-27T02:39:27.303Z,11.38000011
2022-09-27T02:40:28.308Z,11.39000034
2022-09-27T02:41:23.687Z,11.38000011
2022-09-27T02:42:23.795Z,11.35999966
2022-09-27T02:43:25.468Z,11.35999966
2022-09-27T02:44:29.037Z,11.35999966
2022-09-27T02:46:23.851Z,11.35000038
2022-09-27T02:47:28.884Z,11.35000038
2022-09-27T02:48:29.444Z,11.34000015
2022-09-27T02:49:28.569Z,11.35000038
2022-09-27T02:50:31.089Z,11.35999966
2022-09-27T02:51:24.821Z,11.35000038
2022-09-27T02:52:27.792Z,11.35999966
2022-09-27T02:53:24.019Z,11.39000034
2022-09-27T02:54:26.955Z,11.39999962
2022-09-27T02:56:21.046Z,11.39000034
2022-09-27T02:57:28.913Z,11.38000011
2022-09-27T02:58:22.119Z,11.39000034
2022-09-27T02:59:26.580Z,11.39999962
2022-09-27T03:01:23.953Z,11.43000031
2022-09-27T03:02:57.216Z,11.56999969
2022-09-27T03:04:42.918Z,12.10000038
2022-09-27T03:06:29.271Z,12.43999958
2022-09-27T03:07:11.972Z,12.51000023
2022-09-27T03:08:13.199Z,12.47000027
2022-09-27T03:09:12.075Z,12.39000034
2022-09-27T03:11:05.253Z,12.17000008
2022-09-27T03:12:09.141Z,12.03999996
2022-09-27T03:13:09.488Z,11.98999977
2022-09-27T03:14:09.075Z,11.93000031
2022-09-27T03:16:08.937Z,11.85000038
2022-09-27T03:17:02.385Z,11.81000042
2022-09-27T03:18:06.528Z,11.78999996
2022-09-27T03:18:58.646Z,11.75
2022-09-27T03:20:54.432Z,11.72999954
2022-09-27T03:21:51.598Z,11.65999985
2022-09-27T03:22:45.041Z,11.56999969
2022-09-27T03:23:42.574Z,11.55000019
2022-09-27T03:24:41.465Z,11.52999973
2022-09-27T03:25:39.704Z,11.5
2022-09-27T03:26:40.408Z,11.47000027
2022-09-27T03:27:31.829Z,11.43999958
2022-09-27T03:28:29.466Z,11.42000008
2022-09-27T03:29:26.479Z,11.40999985
2022-09-27T03:31:32.039Z,11.39999962
2022-09-27T03:32:28.793Z,11.38000011
2022-09-27T03:33:31.033Z,11.35000038
2022-09-27T03:34:21.793Z,11.31999969
2022-09-27T03:37:08.173Z,11.38000011
2022-09-27T03:37:49.017Z,11.46000004
2022-09-27T03:38:47.220Z,11.48999977
2022-09-27T03:39:46.118Z,11.48999977
2022-09-27T03:40:40.491Z,11.47000027
2022-09-27T03:41:39.485Z,11.43000031
2022-09-27T03:42:37.396Z,11.38000011
2022-09-27T03:43:36.295Z,11.36999989
2022-09-27T03:44:31.990Z,11.31999969
2022-09-27T03:46:27.281Z,11.28999996
2022-09-27T03:47:25.138Z,11.25
2022-09-27T03:48:28.245Z,11.25
2022-09-27T03:49:24.913Z,11.26000023
2022-09-27T03:51:22.291Z,11.22999954
2022-09-27T03:52:21.281Z,11.22000027
2022-09-27T03:53:17.487Z,11.19999981
2022-09-27T03:54:19.798Z,11.14999962
2022-09-27T03:56:14.062Z,11.17000008
2022-09-27T03:57:13.648Z,11.15999985
2022-09-27T03:58:10.530Z,11.14999962
2022-09-27T03:59:13.907Z,11.11999989
2022-09-27T04:00:12.152Z,11.10999966
2022-09-27T04:01:07.747Z,11.11999989
2022-09-27T04:02:09.901Z,11.10000038
2022-09-27T04:03:02.514Z,11.07999992
2022-09-27T04:04:01.187Z,11.11999989
2022-09-27T04:06:02.544Z,11.10999966
2022-09-27T04:07:46.520Z,11.17000008
2022-09-27T04:08:25.725Z,11.26000023
2022-09-27T04:09:28.643Z,11.28999996
2022-09-27T04:10:30.738Z,11.32999992
2022-09-27T04:11:26.064Z,11.32999992
2022-09-27T04:12:26.298Z,11.31000042
2022-09-27T04:13:23.758Z,11.31000042
2022-09-27T04:14:24.632Z,11.26000023
2022-09-27T04:15:20.025Z,11.25
2022-09-27T04:16:20.919Z,11.22000027
2022-09-27T04:17:16.330Z,11.17000008
2022-09-27T04:18:15.897Z,11.13000011
2022-09-27T04:19:11.179Z,11.11999989
2022-09-27T04:20:19.454Z,11.11999989
2022-09-27T04:21:16.657Z,11.09000015
2022-09-27T04:22:16.416Z,11.09000015
2022-09-27T04:23:17.361Z,11.07999992
2022-09-27T04:24:17.012Z,11.03999996
2022-09-27T04:26:20.848Z,11.02000046
2022-09-27T04:27:18.939Z,11
2022-09-27T04:28:18.675Z,10.97000027
2022-09-27T04:29:13.857Z,10.96000004
2022-09-27T04:30:15.128Z,10.94999981
2022-09-27T04:31:08.612Z,10.96000004
2022-09-27T04:32:11.739Z,10.93000031
2022-09-27T04:33:08.017Z,10.90999985
2022-09-27T04:34:09.875Z,10.88000011
2022-09-27T04:36:08.061Z,10.86999989
2022-09-27T04:37:00.770Z,10.86999989
2022-09-27T04:38:09.293Z,10.84000015
2022-09-27T04:39:55.212Z,10.81000042
2022-09-27T04:40:16.404Z,10.89000034
2022-09-27T04:41:13.854Z,10.97999954
2022-09-27T04:42:15.347Z,11
2022-09-27T04:43:10.879Z,11
2022-09-27T04:44:13.656Z,10.97000027
2022-09-27T04:46:10.334Z,10.89999962
2022-09-27T04:48:12.575Z,10.92000008
2022-09-27T04:49:09.872Z,10.94999981
2022-09-27T04:50:09.860Z,10.90999985
2022-09-27T04:51:07.737Z,10.89999962
2022-09-27T04:52:06.612Z,10.84000015
2022-09-27T04:53:02.131Z,10.84000015
2022-09-27T04:53:58.852Z,10.81000042
2022-09-27T04:55:02.557Z,10.80000019
2022-09-27T04:56:04.035Z,10.77999973
2022-09-27T04:56:59.315Z,10.71000004
2022-09-27T04:58:01.195Z,10.72000027
2022-09-27T04:58:54.405Z,10.72000027
2022-09-27T05:00:01.135Z,10.71000004
2022-09-27T05:00:58.585Z,10.69999981
2022-09-27T05:02:00.683Z,10.68000031
2022-09-27T05:02:56.885Z,10.67000008
2022-09-27T05:03:59.663Z,10.68000031
2022-09-27T05:04:51.962Z,10.65999985
2022-09-27T05:05:52.558Z,10.64999962
2022-09-27T05:06:52.452Z,10.65999985
2022-09-27T05:06:57.204Z,10.65999985
2022-09-27T05:07:48.964Z,10.65999985
2022-09-27T05:08:48.942Z,10.68999958
2022-09-27T05:09:46.753Z,10.68999958
2022-09-27T05:10:52.015Z,10.65999985
2022-09-27T05:11:44.367Z,10.64999962
2022-09-27T05:12:51.271Z,10.65999985
2022-09-27T05:13:49.551Z,10.67000008
2022-09-27T05:14:57.502Z,10.63000011
2022-09-27T05:16:43.351Z,10.68000031
2022-09-27T05:18:10.144Z,10.68999958
2022-09-27T05:18:57.568Z,10.69999981
2022-09-27T05:19:58.674Z,10.72000027
2022-09-27T05:20:57.350Z,10.71000004
2022-09-27T05:22:00.647Z,10.68000031
2022-09-27T05:22:56.839Z,10.67000008
2022-09-27T05:23:54.950Z,10.64999962
2022-09-27T05:24:56.429Z,10.61999989
2022-09-27T05:25:51.667Z,10.60999966
2022-09-27T05:26:49.590Z,10.60999966
2022-09-27T05:27:53.011Z,10.60999966
2022-09-27T05:28:54.159Z,10.57999992
2022-09-27T05:29:49.638Z,10.52999973
2022-09-27T05:31:48.887Z,10.48999977
2022-09-27T05:32:52.012Z,10.43000031
2022-09-27T05:34:01.024Z,10.39000034
2022-09-27T05:35:54.866Z,10.39000034
2022-09-27T05:37:03.366Z,10.42000008
2022-09-27T05:38:07.055Z,10.39999962
2022-09-27T05:38:59.663Z,10.40999985
2022-09-27T05:40:16.840Z,10.39999962
2022-09-27T05:40:22.425Z,10.39999962
2022-09-27T05:41:04.855Z,10.42000008
2022-09-27T05:42:01.214Z,10.47000027
2022-09-27T05:43:08.658Z,10.47999954
2022-09-27T05:44:01.878Z,10.47999954
2022-09-27T05:45:59.983Z,10.48999977
2022-09-27T05:47:03.379Z,10.47000027
2022-09-27T05:48:03.169Z,10.43000031
2022-09-27T05:48:59.251Z,10.42000008
2022-09-27T05:50:57.673Z,10.42000008
2022-09-27T05:51:59.342Z,10.42000008
2022-09-27T05:52:54.829Z,10.40999985
2022-09-27T05:53:54.705Z,10.39999962
2022-09-27T05:54:50.692Z,10.36999989
2022-09-27T05:56:49.457Z,10.36999989
2022-09-27T05:57:57.056Z,10.36999989
2022-09-27T05:58:49.130Z,10.38000011
2022-09-27T05:59:45.331Z,10.39999962
2022-09-27T06:01:41.401Z,10.39999962
2022-09-27T06:03:25.153Z,10.42000008
2022-09-27T06:04:06.388Z,10.47999954
2022-09-27T06:05:04.683Z,10.52000046
2022-09-27T06:06:02.102Z,10.48999977
2022-09-27T06:07:01.636Z,10.44999981
2022-09-27T06:07:57.879Z,10.39999962
2022-09-27T06:08:55.482Z,10.36999989
2022-09-27T06:09:55.333Z,10.35999966
2022-09-27T06:11:56.615Z,10.35000038
2022-09-27T06:12:57.105Z,10.32999992
2022-09-27T06:13:55.312Z,10.32999992
2022-09-27T06:14:50.803Z,10.35000038
2022-09-27T06:16:48.691Z,10.35000038
2022-09-27T06:17:47.472Z,10.34000015
2022-09-27T06:18:44.518Z,10.32999992
2022-09-27T06:19:46.997Z,10.35000038
2022-09-27T06:21:43.549Z,10.36999989
2022-09-27T06:22:35.633Z,10.35999966
2022-09-27T06:23:35.600Z,10.39000034
2022-09-27T06:24:29.935Z,10.39999962
2022-09-27T06:26:24.958Z,10.39999962
2022-09-27T06:27:25.018Z,10.39999962
2022-09-27T06:28:20.552Z,10.43000031
2022-09-27T06:29:21.723Z,10.47000027
2022-09-27T06:31:17.159Z,10.42000008
2022-09-27T06:32:13.943Z,10.39000034
2022-09-27T06:33:13.345Z,10.38000011
2022-09-27T06:34:07.922Z,10.38000011
2022-09-27T06:36:02.525Z,10.34000015
2022-09-27T06:37:01.775Z,10.32999992
2022-09-27T06:37:56.075Z,10.32999992
2022-09-27T06:38:55.913Z,10.31999969
2022-09-27T06:39:51.433Z,10.32999992
2022-09-27T06:41:50.046Z,10.34000015
2022-09-27T06:42:49.789Z,10.35000038
2022-09-27T06:43:51.908Z,10.35000038
2022-09-27T06:45:30.951Z,10.47999954
2022-09-27T06:47:52.484Z,10.67000008
2022-09-27T06:48:31.807Z,10.71000004
2022-09-27T06:49:28.771Z,10.68999958
2022-09-27T06:51:29.846Z,10.60999966
2022-09-27T06:52:31.509Z,10.56000042
2022-09-27T06:53:26.649Z,10.52999973
2022-09-27T06:54:25.792Z,10.5
2022-09-27T06:56:20.285Z,10.47000027
2022-09-27T06:57:15.447Z,10.46000004
2022-09-27T06:58:17.237Z,10.44999981
2022-09-27T06:59:10.047Z,10.46000004
2022-09-27T07:00:12.588Z,10.43999958
2022-09-27T07:01:05.172Z,10.46000004
2022-09-27T07:02:05.740Z,10.48999977
2022-09-27T07:03:01.111Z,10.51000023
2022-09-27T07:04:03.782Z,10.47000027
2022-09-27T07:05:57.875Z,10.48999977
2022-09-27T07:06:49.826Z,10.5
2022-09-27T07:07:48.981Z,10.47000027
2022-09-27T07:08:45.173Z,10.47000027
2022-09-27T07:09:46.918Z,10.47000027
2022-09-27T07:11:40.898Z,10.46000004
2022-09-27T07:12:35.328Z,10.42000008
2022-09-27T07:13:34.038Z,10.42000008
2022-09-27T07:14:32.295Z,10.39999962
2022-09-27T07:16:34.948Z,10.39999962
2022-09-27T07:17:27.345Z,10.39000034
2022-09-27T07:18:29.875Z,10.40999985
2022-09-27T07:19:21.718Z,10.40999985
2022-09-27T07:21:20.169Z,10.44999981
2022-09-27T07:22:16.935Z,10.47000027
2022-09-27T07:23:16.152Z,10.47999954
2022-09-27T07:24:10.678Z,10.43000031
2022-09-27T07:26:06.072Z,10.46000004
2022-09-27T07:27:05.216Z,10.47000027
2022-09-27T07:27:59.991Z,10.48999977
2022-09-27T07:29:44.724Z,10.59000015
2022-09-27T07:30:24.173Z,10.65999985
2022-09-27T07:31:23.781Z,10.69999981
2022-09-27T07:32:19.202Z,10.72000027
2022-09-27T07:33:16.335Z,10.71000004
2022-09-27T07:34:15.852Z,10.68999958
2022-09-27T07:36:12.905Z,10.67000008
2022-09-27T07:37:07.529Z,10.68000031
2022-09-27T07:38:07.277Z,10.64999962
2022-09-27T07:39:02.488Z,10.64999962
2022-09-27T07:40:04.283Z,10.61999989
2022-09-27T07:40:56.779Z,10.64999962
2022-09-27T07:41:53.834Z,10.64000034
2022-09-27T07:42:53.427Z,10.60000038
2022-09-27T07:43:48.748Z,10.59000015
2022-09-27T07:44:50.851Z,10.57999992
2022-09-27T07:45:43.470Z,10.59000015
2022-09-27T07:46:41.879Z,10.57999992
2022-09-27T07:47:43.099Z,10.55000019
2022-09-27T07:48:35.408Z,10.5
2022-09-27T07:49:35.106Z,10.47999954
2022-09-27T07:51:29.376Z,10.40999985
2022-09-27T07:52:24.566Z,10.42000008
2022-09-27T07:53:22.035Z,10.40999985
2022-09-27T07:54:21.489Z,10.36999989
2022-09-27T07:56:14.814Z,10.39000034
2022-09-27T07:56:46.708Z,10.39000034
2022-09-27T07:57:42.171Z,10.39999962
2022-09-27T07:58:44.277Z,10.40999985
2022-09-27T07:59:37.078Z,10.39999962
2022-09-27T08:01:21.010Z,10.48999977
2022-09-27T08:02:01.104Z,10.55000019
2022-09-27T08:02:58.419Z,10.59000015
2022-09-27T08:03:57.846Z,10.59000015
2022-09-27T08:04:53.177Z,10.56999969
2022-09-27T08:06:47.368Z,10.56999969
2022-09-27T08:07:45.761Z,10.59000015
2022-09-27T08:08:45.675Z,10.61999989
2022-09-27T08:09:42.155Z,10.60999966
2022-09-27T08:11:37.048Z,10.56999969
2022-09-27T08:12:38.653Z,10.56000042
2022-09-27T08:13:33.025Z,10.57999992
2022-09-27T08:14:31.145Z,10.59000015
2022-09-27T08:16:26.421Z,10.63000011
2022-09-27T08:17:26.390Z,10.61999989
2022-09-27T08:18:21.289Z,10.61999989
2022-09-27T08:19:21.136Z,10.61999989
2022-09-27T08:20:16.249Z,10.60000038
2022-09-27T08:21:15.702Z,10.60999966
2022-09-27T08:22:11.708Z,10.61999989
2022-09-27T08:23:10.572Z,10.63000011
2022-09-27T08:24:05.814Z,10.63000011
2022-09-27T08:25:05.623Z,10.64000034
2022-09-27T08:26:00.765Z,10.67000008
2022-09-27T08:27:06.039Z,10.68000031
2022-09-27T08:28:01.492Z,10.72999954
2022-09-27T08:28:54.513Z,10.77000046
2022-09-27T08:29:58.056Z,10.78999996
2022-09-27T08:31:53.874Z,10.86999989
2022-09-27T08:32:48.076Z,10.89999962
2022-09-27T08:33:46.588Z,10.93999958
2022-09-27T08:34:45.349Z,10.93999958
2022-09-27T08:36:43.784Z,10.98999977
2022-09-27T08:37:36.945Z,11.01000023
2022-09-27T08:38:34.727Z,11.06000042
2022-09-27T08:39:34.746Z,11.06999969
2022-09-27T08:40:29.956Z,11.03999996
2022-09-27T08:41:28.180Z,11.02000046
2022-09-27T08:42:27.919Z,11.01000023
2022-09-27T08:43:52.062Z,11.01000023
2022-09-27T08:44:31.724Z,11
2022-09-27T08:46:27.829Z,11.05000019
2022-09-27T08:47:27.638Z,11.05000019
2022-09-27T08:48:23.150Z,11.05000019
2022-09-27T08:49:26.280Z,11.05000019
2022-09-27T08:50:22.093Z,11.05000019
2022-09-27T08:51:17.389Z,11.06000042
2022-09-27T08:52:17.514Z,11.05000019
2022-09-27T08:53:12.761Z,11.03999996
2022-09-27T08:54:13.178Z,11.02000046
2022-09-27T08:56:08.996Z,11.01000023
2022-09-27T08:57:04.387Z,11.02000046
2022-09-27T08:58:02.967Z,11.02000046
2022-09-27T08:59:02.165Z,11.01000023
2022-09-27T08:59:57.634Z,11.01000023
2022-09-27T09:01:00.569Z,11.01000023
2022-09-27T09:01:53.306Z,11.02000046
2022-09-27T09:02:51.762Z,11.02999973
2022-09-27T09:03:51.328Z,11.03999996
2022-09-27T09:04:46.644Z,11.02999973
2022-09-27T09:06:42.118Z,11.05000019
2022-09-27T09:07:42.292Z,11.05000019
2022-09-27T09:08:42.432Z,11.05000019
2022-09-27T09:08:46.305Z,11.05000019
2022-09-27T09:08:51.002Z,11.05000019
2022-09-27T09:09:38.697Z,11.06000042
2022-09-27T09:10:34.227Z,11.10999966
2022-09-27T09:11:34.578Z,11.11999989
2022-09-27T09:12:30.229Z,11.10999966
2022-09-27T09:13:33.045Z,11.10999966
2022-09-27T09:14:27.474Z,11.11999989
2022-09-27T09:16:21.988Z,11.10999966
2022-09-27T09:17:20.344Z,11.10000038
2022-09-27T09:18:19.804Z,11.06999969
2022-09-27T09:19:15.082Z,11.06000042
2022-09-27T09:20:18.544Z,11.03999996
2022-09-27T09:21:11.380Z,11.02999973
2022-09-27T09:22:09.141Z,11.03999996
2022-09-27T09:23:08.854Z,11.01000023
2022-09-27T09:24:03.883Z,11
2022-09-27T09:26:00.887Z,10.96000004
2022-09-27T09:27:03.568Z,10.94999981
2022-09-27T09:28:01.621Z,10.94999981
2022-09-27T09:28:02.736Z,10.94999981
2022-09-27T09:28:58.989Z,10.97000027
2022-09-27T09:29:55.142Z,10.98999977
2022-09-27T09:30:54.672Z,10.98999977
2022-09-27T09:31:50.256Z,11
2022-09-27T09:32:48.599Z,11
2022-09-27T09:33:48.163Z,11
2022-09-27T09:35:46.368Z,11.03999996
2022-09-27T09:36:06.501Z,11.10000038
2022-09-27T09:37:04.344Z,11.22000027
2022-09-27T09:38:03.736Z,11.27000046
2022-09-27T09:39:03.987Z,11.27000046
2022-09-27T09:39:58.218Z,11.23999977
2022-09-27T09:40:58.200Z,11.25
2022-09-27T09:41:53.541Z,11.22999954
2022-09-27T09:42:53.387Z,11.22999954
2022-09-27T09:43:50.513Z,11.22000027
2022-09-27T09:44:50.162Z,11.21000004
2022-09-27T09:46:45.979Z,11.21000004
2022-09-27T09:47:41.407Z,11.18000031
2022-09-27T09:48:43.914Z,11.21000004
2022-09-27T09:49:36.648Z,11.22999954
2022-09-27T09:51:34.688Z,11.23999977
2022-09-27T09:52:30.093Z,11.25
2022-09-27T09:53:27.644Z,11.23999977
2022-09-27T09:54:30.801Z,11.21000004
2022-09-27T09:56:25.350Z,11.22999954
2022-09-27T09:57:20.532Z,11.22000027
2022-09-27T09:58:23.651Z,11.21000004
2022-09-27T09:59:16.450Z,11.27000046
2022-09-27T10:01:11.952Z,11.28999996
2022-09-27T10:02:12.047Z,11.27999973
2022-09-27T10:03:07.407Z,11.25
2022-09-27T10:04:10.290Z,11.25
2022-09-27T10:05:07.655Z,11.25
2022-09-27T10:05:08.343Z,11.25
2022-09-27T10:06:03.508Z,11.27000046
2022-09-27T10:06:58.881Z,11.27999973
2022-09-27T10:07:59.157Z,11.31999969
2022-09-27T10:08:54.366Z,11.31999969
2022-09-27T10:09:54.359Z,11.28999996
2022-09-27T10:11:47.090Z,11.27000046
2022-09-27T10:12:49.703Z,11.27999973
2022-09-27T10:13:42.487Z,11.27999973
2022-09-27T10:14:45.800Z,11.28999996
2022-09-27T10:15:38.729Z,11.31000042
2022-09-27T10:16:39.153Z,11.32999992
2022-09-27T10:17:34.961Z,11.35000038
2022-09-27T10:18:35.007Z,11.36999989
2022-09-27T10:19:30.442Z,11.35000038
2022-09-27T10:20:54.594Z,11.32999992
2022-09-27T10:21:34.889Z,11.34000015
2022-09-27T10:22:33.911Z,11.35000038
2022-09-27T10:23:34.515Z,11.35999966
2022-09-27T10:24:30.644Z,11.35999966
2022-09-27T10:26:26.428Z,11.34000015
2022-09-27T10:27:27.037Z,11.35000038
2022-09-27T10:28:23.160Z,11.35999966
2022-09-27T10:29:23.848Z,11.35999966
2022-09-27T10:31:23.372Z,11.39000034
2022-09-27T10:32:17.694Z,11.43999958
2022-09-27T10:33:17.809Z,11.46000004
2022-09-27T10:34:14.237Z,11.48999977
2022-09-27T10:36:11.124Z,11.51000023
2022-09-27T10:37:14.475Z,11.53999996
2022-09-27T10:38:08.852Z,11.55000019
2022-09-27T10:39:08.877Z,11.56999969
2022-09-27T10:40:05.211Z,11.59000015
2022-09-27T10:41:06.405Z,11.63000011
2022-09-27T10:42:02.699Z,11.68000031
2022-09-27T10:43:01.893Z,11.69999981
2022-09-27T10:44:02.684Z,11.72999954
2022-09-27T10:46:00.350Z,11.75
2022-09-27T10:46:56.611Z,11.76000023
2022-09-27T10:47:57.037Z,11.77999973
2022-09-27T10:48:53.315Z,11.76000023
2022-09-27T10:49:51.208Z,11.73999977
2022-09-27T10:51:50.362Z,11.73999977
2022-09-27T10:52:46.384Z,11.76000023
2022-09-27T10:53:49.934Z,11.78999996
2022-09-27T10:54:48.627Z,11.77999973
2022-09-27T10:55:51.566Z,11.78999996
2022-09-27T10:56:45.827Z,11.78999996
2022-09-27T10:57:45.330Z,11.78999996
2022-09-27T10:58:40.823Z,11.78999996
2022-09-27T11:02:33.621Z,12.01000023
2022-09-27T11:02:54.351Z,12.09000015
2022-09-27T11:03:52.507Z,12.15999985
2022-09-27T11:04:53.124Z,12.14999962
2022-09-27T11:06:49.591Z,12.07999992
2022-09-27T11:07:45.077Z,12.02999973
2022-09-27T11:08:45.869Z,11.98999977
2022-09-27T11:09:41.365Z,11.93999958
2022-09-27T11:10:41.745Z,11.90999985
2022-09-27T11:11:37.168Z,11.89000034
2022-09-27T11:12:37.302Z,11.85999966
2022-09-27T11:13:32.659Z,11.85000038
2022-09-27T11:14:32.152Z,11.84000015
2022-09-27T11:15:30.480Z,11.81999969
2022-09-27T11:16:26.214Z,11.81000042
2022-09-27T11:17:29.301Z,11.81000042
2022-09-27T11:18:23.517Z,11.85000038
2022-09-27T11:19:26.375Z,11.86999989
2022-09-27T11:21:24.297Z,11.89999962
2022-09-27T11:22:18.494Z,11.93000031
2022-09-27T11:23:16.468Z,11.93999958
2022-09-27T11:24:17.009Z,11.93999958
2022-09-27T11:26:13.629Z,11.93000031
2022-09-27T11:27:09.293Z,11.96000004
2022-09-27T11:28:09.748Z,11.96000004
2022-09-27T11:29:05.299Z,11.96000004
2022-09-27T11:30:08.289Z,11.90999985
2022-09-27T11:31:06.649Z,11.92000008
2022-09-27T11:32:02.140Z,11.93000031
2022-09-27T11:32:58.480Z,11.90999985
2022-09-27T11:33:58.154Z,11.90999985
2022-09-27T11:34:53.430Z,11.88000011
2022-09-27T11:35:55.950Z,11.85000038
2022-09-27T11:36:54.415Z,11.78999996
2022-09-27T11:37:51.643Z,11.77999973
2022-09-27T11:38:53.624Z,11.73999977
2022-09-27T11:38:54.386Z,11.73999977
2022-09-27T11:39:47.460Z,11.69999981
2022-09-27T11:41:17.299Z,11.73999977
2022-09-27T11:41:56.521Z,11.75
2022-09-27T11:42:56.628Z,11.75
2022-09-27T11:43:51.842Z,11.75
2022-09-27T11:45:13.371Z,11.71000004
2022-09-27T11:45:19.994Z,11.71000004
2022-09-27T11:46:14.331Z,11.68999958
2022-09-27T11:46:19.296Z,11.68999958
2022-09-27T11:46:46.000Z,11.73999977
2022-09-27T11:47:46.276Z,11.80000019
2022-09-27T11:48:41.581Z,11.80000019
2022-09-27T11:49:41.504Z,11.76000023
2022-09-27T11:50:36.792Z,11.75
2022-09-27T11:51:36.982Z,11.72000027
2022-09-27T11:52:32.322Z,11.72000027
2022-09-27T11:53:32.497Z,11.72000027
2022-09-27T11:54:27.820Z,11.72999954
2022-09-27T11:56:24.052Z,11.71000004
2022-09-27T11:57:24.211Z,11.71000004